Time;durP1;ratioP1;P1;durP2;ratioP2;P2;SDS_P1;SDS_P2;PMS_P1;PMS_P2;Temp;Humidity;BMP_temperature;BMP_pressure;BME280_temperature;BME280_humidity;BME280_pressure;Samples;Min_cycle;Max_cycle;Signal;HPM_P1;HPM_P2
2022/04/27 00:00:45;;;;;;;2.23;2.10;;;10.80;76.60;11.10;96563.00;;;;5093458;28;20207;-85
2022/04/27 00:03:12;;;;;;;2.50;2.30;;;10.80;76.60;11.10;96552.00;;;;5095936;28;20195;-86
2022/04/27 00:05:40;;;;;;;2.50;2.40;;;11.00;76.50;11.10;96556.00;;;;5096138;28;20306;-85
2022/04/27 00:08:07;;;;;;;2.17;2.07;;;10.80;76.30;11.10;96553.00;;;;5096318;28;20195;-87
2022/04/27 00:10:38;;;;;;;2.43;2.23;;;10.90;76.10;11.10;96555.00;;;;5096498;28;20248;-86
2022/04/27 00:13:05;;;;;;;2.50;2.30;;;10.90;76.00;11.10;96559.00;;;;5095550;28;20199;-87
2022/04/27 00:15:32;;;;;;;2.63;2.43;;;10.90;75.90;11.10;96566.00;;;;5095889;28;20286;-86
2022/04/27 00:17:59;;;;;;;2.40;2.30;;;10.80;75.70;11.10;96564.00;;;;5096547;28;20680;-85
2022/04/27 00:20:26;;;;;;;2.63;2.53;;;10.80;75.80;11.10;96563.00;;;;5095827;28;20223;-86
2022/04/27 00:22:53;;;;;;;2.63;2.50;;;10.80;75.80;11.00;96566.00;;;;5096270;28;20230;-86
2022/04/27 00:25:21;;;;;;;2.90;2.70;;;10.80;75.80;11.00;96561.00;;;;5096212;28;20286;-86
2022/04/27 00:27:50;;;;;;;3.00;2.80;;;10.80;75.70;11.00;96555.00;;;;5096748;28;20282;-87
2022/04/27 00:30:17;;;;;;;2.90;2.70;;;10.80;75.60;11.00;96560.00;;;;5096739;28;20200;-86
2022/04/27 00:32:44;;;;;;;3.07;2.87;;;10.80;75.60;11.00;96560.00;;;;5096281;28;20278;-86
2022/04/27 00:35:11;;;;;;;2.80;2.57;;;11.70;76.00;10.90;96560.00;;;;5096011;28;20218;-86
2022/04/27 00:37:38;;;;;;;3.10;2.90;;;10.70;75.20;10.90;96565.00;;;;5096077;28;20288;-86
2022/04/27 00:40:07;;;;;;;3.17;2.70;;;10.70;75.90;10.90;96571.00;;;;5096606;28;20203;-86
2022/04/27 00:42:34;;;;;;;2.53;2.33;;;10.70;75.20;10.80;96569.00;;;;5095355;28;20691;-86
2022/04/27 00:45:03;;;;;;;2.57;2.37;;;10.70;75.20;10.80;96567.00;;;;5095338;28;20199;-87
2022/04/27 00:47:31;;;;;;;2.57;2.47;;;10.60;75.10;10.80;96557.00;;;;5096449;28;20223;-86
2022/04/27 00:49:58;;;;;;;3.00;2.80;;;10.60;75.00;10.70;96565.00;;;;5096491;28;20210;-85
2022/04/27 00:52:26;;;;;;;3.07;2.87;;;10.60;75.00;10.70;96558.00;;;;5095818;28;20191;-86
2022/04/27 00:54:56;;;;;;;2.80;2.60;;;10.50;74.90;10.70;96568.00;;;;5094658;28;20271;-86
2022/04/27 00:57:25;;;;;;;2.53;2.33;;;10.50;74.90;10.70;96568.00;;;;5094658;28;20227;-87
2022/04/27 00:59:53;;;;;;;3.43;2.87;;;10.50;75.00;10.60;96568.00;;;;5095311;28;20278;-85
2022/04/27 01:02:22;;;;;;;2.70;2.50;;;10.40;75.00;10.60;96564.00;;;;5093159;28;20640;-86
2022/04/27 01:04:49;;;;;;;2.80;2.60;;;10.40;75.90;10.60;96572.00;;;;5092949;28;20196;-87
2022/04/27 01:07:17;;;;;;;2.87;2.67;;;10.40;75.30;10.50;96575.00;;;;5093430;28;20250;-86
2022/04/27 01:09:44;;;;;;;2.83;2.63;;;10.40;75.40;10.50;96568.00;;;;5095535;28;20187;-86
2022/04/27 01:12:11;;;;;;;2.70;2.50;;;10.30;75.20;10.50;96574.00;;;;5083867;28;20283;-86
2022/04/27 01:14:43;;;;;;;2.60;2.40;;;10.30;75.20;10.40;96575.00;;;;5075166;28;20292;-86
2022/04/27 01:17:10;;;;;;;2.37;2.17;;;10.30;75.00;10.40;96574.00;;;;5074559;28;20219;-87
2022/04/27 01:19:39;;;;;;;2.30;2.20;;;10.30;74.80;10.30;96574.00;;;;5075887;28;20222;-86
2022/04/27 01:22:08;;;;;;;2.60;2.40;;;10.20;74.80;10.30;96580.00;;;;5094379;28;20252;-87
2022/04/27 01:24:36;;;;;;;2.70;2.50;;;10.20;74.80;10.30;96565.00;;;;5094755;28;20290;-86
2022/04/27 01:27:04;;;;;;;2.43;2.33;;;10.10;75.50;10.20;96570.00;;;;5094517;28;20224;-86
2022/04/27 01:29:32;;;;;;;2.90;2.70;;;10.10;74.80;10.20;96572.00;;;;5094809;28;20202;-86
2022/04/27 01:32:01;;;;;;;2.43;2.23;;;10.10;75.00;10.20;96565.00;;;;5094588;28;20615;-86
2022/04/27 01:34:29;;;;;;;2.70;2.50;;;10.10;75.00;10.20;96581.00;;;;5094066;28;20683;-87
2022/04/27 01:37:59;;;;;;;2.83;2.63;;;10.00;74.90;10.20;96573.00;;;;5094909;28;20215;-86
2022/04/27 01:39:44;;;;;;;2.80;2.60;;;10.00;75.10;10.10;96579.00;;;;5094571;28;20199;-86
2022/04/27 01:42:11;;;;;;;2.70;2.50;;;10.00;75.20;10.20;96570.00;;;;5094638;28;20209;-86
2022/04/27 01:44:38;;;;;;;3.00;2.80;;;10.00;75.30;10.10;96578.00;;;;5094290;28;20290;-86
2022/04/27 01:47:06;;;;;;;2.90;2.70;;;10.00;75.40;10.10;96581.00;;;;5094412;28;20242;-87
2022/04/27 01:49:33;;;;;;;2.70;2.53;;;10.00;75.60;10.20;96591.00;;;;5094674;28;20721;-85
2022/04/27 01:54:47;;;;;;;2.83;2.63;;;10.00;76.00;10.20;96579.00;;;;5094176;28;20182;-86
2022/04/27 01:57:14;;;;;;;3.07;2.87;;;10.00;76.10;10.20;96583.00;;;;5092622;28;20245;-86
2022/04/27 01:59:42;;;;;;;3.33;3.07;;;10.00;76.20;10.20;96592.00;;;;5093662;28;20207;-87
2022/04/27 02:02:10;;;;;;;2.63;2.53;;;9.90;76.20;10.20;96595.00;;;;5094154;28;20662;-86
2022/04/27 02:04:39;;;;;;;3.13;2.93;;;10.00;76.40;10.20;96587.00;;;;5093502;28;20203;-86
2022/04/27 02:07:06;;;;;;;2.90;2.70;;;10.10;76.30;10.20;96581.00;;;;5093575;28;20626;-85
2022/04/27 02:09:33;;;;;;;2.93;2.73;;;9.90;76.10;10.20;96584.00;;;;5094057;28;20306;-87
2022/04/27 02:12:02;;;;;;;3.40;2.70;;;10.00;76.00;10.20;96592.00;;;;5093506;28;20620;-86
2022/04/27 02:14:29;;;;;;;2.83;2.63;;;10.00;75.90;10.10;96593.00;;;;5093815;28;20203;-87
2022/04/27 02:16:57;;;;;;;2.90;2.70;;;10.00;75.70;10.10;96593.00;;;;5093156;28;20227;-84
2022/04/27 02:19:24;;;;;;;3.10;2.90;;;10.00;75.50;10.10;96593.00;;;;5093348;28;20258;-84
2022/04/27 02:21:52;;;;;;;3.00;2.80;;;9.80;75.30;10.10;96598.00;;;;5092968;28;20290;-85
2022/04/27 02:24:19;;;;;;;3.70;3.40;;;9.90;75.20;10.00;96581.00;;;;5093910;28;20200;-85
2022/04/27 02:26:46;;;;;;;3.10;2.90;;;9.90;75.00;9.90;96586.00;;;;5093698;28;20691;-85
2022/04/27 02:29:16;;;;;;;3.40;3.10;;;9.90;74.90;9.90;96592.00;;;;5093008;28;20234;-85
2022/04/27 02:31:43;;;;;;;3.00;2.80;;;9.80;75.00;9.90;96589.00;;;;5073978;28;20196;-84
2022/04/27 02:34:11;;;;;;;2.60;2.50;;;9.80;75.10;9.90;96591.00;;;;5072946;28;20192;-85
2022/04/27 02:36:38;;;;;;;3.17;2.87;;;9.80;75.10;9.90;96603.00;;;;5075868;28;20223;-85
2022/04/27 02:39:05;;;;;;;2.87;2.67;;;9.60;75.00;9.80;96599.00;;;;5092978;28;20313;-85
2022/04/27 02:41:32;;;;;;;3.20;3.00;;;9.70;75.00;9.80;96600.00;;;;5092745;28;20227;-85
2022/04/27 02:43:59;;;;;;;3.27;3.07;;;9.70;75.10;9.80;96595.00;;;;5088388;28;20275;-85
2022/04/27 02:46:28;;;;;;;3.17;2.97;;;9.70;75.20;9.80;96603.00;;;;5073142;28;20254;-85
2022/04/27 02:51:52;;;;;;;3.80;3.50;;;9.60;75.60;9.80;96604.00;;;;5073204;28;20233;-85
2022/04/27 02:54:21;;;;;;;3.33;3.10;;;9.60;75.80;9.80;96607.00;;;;5072934;28;20207;-85
2022/04/27 02:56:49;;;;;;;3.27;3.07;;;9.60;75.90;9.80;96601.00;;;;5072931;28;20631;-85
2022/04/27 02:59:16;;;;;;;4.10;3.63;;;9.60;76.10;9.90;96618.00;;;;5072312;28;20247;-85
2022/04/27 03:01:45;;;;;;;3.80;3.50;;;9.60;76.10;9.90;96609.00;;;;5072584;28;20279;-85
2022/04/27 03:04:12;;;;;;;3.20;3.00;;;9.70;76.10;9.90;96614.00;;;;5072900;28;20275;-85
2022/04/27 03:06:39;;;;;;;3.67;3.47;;;9.60;76.10;9.90;96612.00;;;;5072208;28;20642;-84
2022/04/27 03:09:07;;;;;;;3.37;3.17;;;9.70;76.30;9.90;96616.00;;;;5072875;28;20203;-85
2022/04/27 03:11:34;;;;;;;3.90;3.60;;;9.70;76.30;9.90;96618.00;;;;5073225;28;20291;-85
2022/04/27 03:14:01;;;;;;;4.33;3.90;;;9.70;76.40;9.90;96620.00;;;;5072362;28;20303;-85
2022/04/27 03:16:28;;;;;;;3.70;3.47;;;9.70;76.40;9.90;96621.00;;;;5072115;28;20247;-85
2022/04/27 03:18:57;;;;;;;4.43;4.07;;;9.70;76.40;9.90;96622.00;;;;5072670;28;20258;-85
2022/04/27 03:21:24;;;;;;;4.00;3.70;;;9.70;76.40;9.90;96632.00;;;;5072705;28;20216;-84
2022/04/27 03:23:51;;;;;;;4.30;4.00;;;9.70;76.40;9.90;96621.00;;;;5072305;28;20280;-84
2022/04/27 03:26:18;;;;;;;4.40;4.10;;;9.70;76.40;9.90;96625.00;;;;5070935;28;20302;-84
2022/04/27 03:28:45;;;;;;;4.33;3.97;;;9.70;76.40;9.90;96623.00;;;;5073045;28;20299;-85
2022/04/27 03:31:12;;;;;;;4.80;4.40;;;9.70;76.30;9.90;96629.00;;;;5072312;28;20223;-84
2022/04/27 03:33:39;;;;;;;4.97;4.57;;;9.80;76.40;9.90;96626.00;;;;5072073;28;20257;-84
2022/04/27 03:36:09;;;;;;;5.37;4.90;;;9.70;76.40;9.90;96630.00;;;;5072440;28;20308;-84
2022/04/27 03:38:36;;;;;;;4.97;4.57;;;9.70;77.20;9.90;96637.00;;;;5072990;28;20223;-84
2022/04/27 03:41:03;;;;;;;5.33;4.93;;;9.70;76.40;9.90;96630.00;;;;5072483;28;20192;-85
2022/04/27 03:43:31;;;;;;;4.73;4.33;;;9.70;76.40;9.90;96636.00;;;;5071719;28;20199;-83
2022/04/27 03:45:58;;;;;;;5.00;4.60;;;9.70;76.20;9.80;96633.00;;;;5072346;28;20966;-85
2022/04/27 03:48:26;;;;;;;5.03;4.67;;;9.70;76.20;9.80;96640.00;;;;5071809;28;20733;-85
2022/04/27 03:50:53;;;;;;;5.33;4.93;;;9.70;76.20;9.80;96651.00;;;;5071139;28;20565;-85
2022/04/27 03:53:21;;;;;;;5.03;4.63;;;9.70;76.20;9.80;96644.00;;;;5071948;28;20200;-85
2022/04/27 03:55:48;;;;;;;5.37;4.90;;;9.70;76.10;9.80;96653.00;;;;5072416;28;20645;-84
2022/04/27 03:58:15;;;;;;;5.30;4.90;;;9.60;76.10;9.80;96656.00;;;;5072520;28;20242;-85
2022/04/27 04:00:42;;;;;;;6.20;5.60;;;9.60;76.10;9.80;96652.00;;;;5071809;28;20548;-84
2022/04/27 04:03:11;;;;;;;5.67;5.27;;;9.60;76.20;9.70;96664.00;;;;5071710;28;20235;-84
2022/04/27 04:05:39;;;;;;;5.23;4.83;;;9.60;76.30;9.70;96660.00;;;;5071320;28;20302;-85
2022/04/27 04:08:07;;;;;;;4.63;4.23;;;9.60;76.30;9.70;96674.00;;;;5071824;28;20574;-84
2022/04/27 04:10:36;;;;;;;5.77;5.27;;;9.60;76.40;9.70;96674.00;;;;5071200;28;20290;-85
2022/04/27 04:13:03;;;;;;;6.30;5.80;;;9.60;76.60;9.70;96674.00;;;;5072370;28;20231;-84
2022/04/27 04:15:32;;;;;;;9.17;7.10;;;9.60;76.70;9.80;96683.00;;;;5072109;28;20228;-86
2022/04/27 04:17:59;;;;;;;6.97;6.37;;;9.60;76.90;9.80;96688.00;;;;5072209;28;20646;-86
2022/04/27 04:20:26;;;;;;;7.97;7.13;;;9.60;77.00;9.90;96689.00;;;;5071743;28;20238;-85
2022/04/27 04:22:53;;;;;;;6.87;6.27;;;9.60;77.10;9.90;96681.00;;;;5076098;28;20640;-85
2022/04/27 04:30:52;;;;;;;6.83;6.13;;;9.70;77.70;10.10;96699.00;;;;5071968;28;20656;-84
2022/04/27 04:33:19;;;;;;;6.10;5.50;;;9.80;77.90;10.20;96702.00;;;;5072712;28;20196;-85
2022/04/27 04:35:47;;;;;;;6.47;5.93;;;9.80;78.80;10.30;96701.00;;;;5072118;28;20644;-85
2022/04/27 04:38:14;;;;;;;5.90;5.40;;;9.90;78.20;10.40;96703.00;;;;5071439;28;20709;-85
2022/04/27 04:40:41;;;;;;;6.17;5.67;;;10.00;78.30;10.50;96707.00;;;;5075696;28;20191;-85
2022/04/27 04:43:10;;;;;;;5.40;4.90;;;10.00;79.10;10.60;96710.00;;;;5084601;28;20199;-85
2022/04/27 04:45:38;;;;;;;5.60;5.20;;;10.10;78.50;10.70;96717.00;;;;5081798;28;20220;-85
2022/04/27 04:48:05;;;;;;;5.47;4.97;;;10.20;78.50;10.70;96718.00;;;;5084408;28;20624;-85
2022/04/27 04:50:33;;;;;;;5.20;4.77;;;10.30;78.50;10.80;96719.00;;;;5095646;28;20644;-84
2022/04/27 04:53:00;;;;;;;5.10;4.70;;;10.40;78.40;10.90;96721.00;;;;5090103;28;20251;-84
2022/04/27 04:55:27;;;;;;;4.80;4.40;;;10.40;78.40;11.00;96728.00;;;;5074176;28;20323;-85
2022/04/27 04:57:55;;;;;;;5.43;5.00;;;10.50;78.30;11.10;96728.00;;;;5075142;28;20202;-84
2022/04/27 05:00:23;;;;;;;6.43;5.83;;;10.60;78.20;11.10;96740.00;;;;5073924;28;20247;-85
2022/04/27 05:02:51;;;;;;;5.63;5.13;;;10.70;78.30;11.20;96733.00;;;;5079469;28;20256;-84
2022/04/27 05:05:18;;;;;;;5.70;5.20;;;10.70;78.20;11.30;96744.00;;;;5094553;28;20223;-86
2022/04/27 05:07:45;;;;;;;5.83;5.33;;;10.80;78.20;11.40;96744.00;;;;5080297;28;20199;-86
2022/04/27 05:10:15;;;;;;;6.60;6.00;;;10.80;78.00;11.50;96741.00;;;;5079715;28;20283;-85
2022/04/27 05:12:42;;;;;;;5.23;4.80;;;10.90;77.90;11.50;96758.00;;;;5077727;28;20204;-85
2022/04/27 05:15:11;;;;;;;6.07;5.47;;;11.00;78.00;11.60;96752.00;;;;5083829;28;20652;-86
2022/04/27 05:17:40;;;;;;;6.30;5.70;;;11.10;77.90;11.60;96753.00;;;;5116239;22;20607;-89
2022/04/27 05:20:09;;;;;;;6.33;5.73;;;11.10;77.90;11.70;96760.00;;;;5109859;28;20602;-89
2022/04/27 05:22:40;;;;;;;7.27;6.53;;;11.20;77.90;11.80;96761.00;;;;5095555;28;20295;-88
2022/04/27 05:25:10;;;;;;;7.00;6.30;;;11.20;77.80;11.90;96760.00;;;;5106482;28;20213;-89
2022/04/27 05:27:38;;;;;;;6.30;5.70;;;11.30;77.70;11.90;96762.00;;;;5096634;28;20663;-89
2022/04/27 05:32:54;;;;;;;7.07;6.37;;;11.40;77.90;12.10;96767.00;;;;5101156;28;20183;-87
2022/04/27 05:35:21;;;;;;;6.90;6.30;;;11.50;77.80;12.20;96771.00;;;;5099502;28;20260;-87
2022/04/27 05:37:49;;;;;;;6.73;5.97;;;11.60;77.80;12.30;96776.00;;;;5099191;28;20286;-86
2022/04/27 05:40:16;;;;;;;6.60;6.03;;;11.70;78.50;12.40;96788.00;;;;5098340;28;20303;-87
2022/04/27 05:42:43;;;;;;;7.43;6.77;;;11.80;77.70;12.40;96790.00;;;;5097700;28;20293;-88
2022/04/27 05:45:11;;;;;;;7.23;6.60;;;11.80;77.70;12.50;96791.00;;;;5097768;28;20210;-87
2022/04/27 05:47:38;;;;;;;6.73;6.13;;;11.90;77.80;12.60;96793.00;;;;5096661;28;20626;-87
2022/04/27 05:50:08;;;;;;;7.23;6.27;;;12.00;77.70;12.70;96784.00;;;;5097242;28;20227;-87
2022/04/27 05:52:52;;;;;;;7.63;6.93;;;12.10;77.50;12.80;96797.00;;;;5098169;28;20725;-89
2022/04/27 05:55:20;;;;;;;6.90;6.20;;;12.20;77.40;12.80;96792.00;;;;5099032;28;20641;-87
2022/04/27 05:57:48;;;;;;;7.33;6.67;;;12.20;77.20;12.90;96799.00;;;;5096333;28;20259;-88
2022/04/27 06:00:17;;;;;;;7.57;6.30;;;12.30;77.00;12.90;96801.00;;;;5082053;28;20325;-87
2022/04/27 06:02:45;;;;;;;7.90;6.43;;;12.30;76.80;13.00;96804.00;;;;5089480;28;20290;-86
2022/04/27 06:05:14;;;;;;;7.07;6.37;;;12.40;76.80;13.10;96807.00;;;;5100791;28;20199;-87
2022/04/27 06:07:41;;;;;;;7.93;7.20;;;12.50;77.10;13.20;96818.00;;;;5096610;28;20199;-88
2022/04/27 06:10:10;;;;;;;8.07;7.27;;;12.50;77.10;13.30;96813.00;;;;5095464;28;20301;-87
2022/04/27 06:12:46;;;;;;;7.93;7.13;;;12.60;77.00;13.40;96818.00;;;;5096270;28;20649;-87
2022/04/27 06:15:15;;;;;;;7.10;6.40;;;12.70;76.80;13.50;96820.00;;;;5097315;28;20266;-87
2022/04/27 06:17:42;;;;;;;8.20;7.50;;;12.80;77.00;13.60;96818.00;;;;5098248;28;20206;-87
2022/04/27 06:20:11;;;;;;;8.60;7.80;;;12.90;77.00;13.60;96814.00;;;;5098316;28;20309;-87
2022/04/27 06:22:40;;;;;;;7.60;6.90;;;12.90;76.60;13.60;96820.00;;;;5096121;28;20278;-88
2022/04/27 06:25:08;;;;;;;7.70;7.00;;;13.00;76.20;13.60;96822.00;;;;5089840;28;20192;-87
2022/04/27 06:27:36;;;;;;;8.03;7.23;;;13.00;75.90;13.60;96823.00;;;;5097091;28;20245;-86
2022/04/27 06:30:04;;;;;;;8.40;7.60;;;13.00;75.90;13.60;96830.00;;;;5097208;28;20277;-87
2022/04/27 06:32:32;;;;;;;8.03;7.33;;;13.10;75.80;13.60;96830.00;;;;5101011;28;20303;-88
2022/04/27 06:34:59;;;;;;;8.23;7.53;;;13.10;75.90;13.70;96831.00;;;;5098779;28;20202;-87
2022/04/27 06:37:26;;;;;;;6.80;6.20;;;13.10;76.00;13.70;96828.00;;;;5086473;28;20198;-87
2022/04/27 06:39:55;;;;;;;6.07;5.57;;;13.20;76.10;13.90;96833.00;;;;5097722;28;20715;-87
2022/04/27 06:42:22;;;;;;;6.47;5.87;;;13.30;76.50;14.00;96841.00;;;;5098208;28;20235;-87
2022/04/27 06:44:50;;;;;;;6.10;5.50;;;13.30;76.70;14.20;96840.00;;;;5092391;28;20199;-87
2022/04/27 06:47:17;;;;;;;5.87;5.37;;;13.50;76.70;14.30;96843.00;;;;5082451;28;20263;-87
2022/04/27 06:49:51;;;;;;;6.10;5.60;;;13.60;76.40;14.50;96838.00;;;;5076793;28;20269;-87
2022/04/27 06:52:18;;;;;;;6.00;5.50;;;13.70;75.90;14.60;96841.00;;;;5077115;28;20190;-87
2022/04/27 06:54:45;;;;;;;5.97;5.47;;;13.90;75.80;14.70;96844.00;;;;5076137;28;20657;-88
2022/04/27 06:57:14;;;;;;;5.93;5.43;;;13.90;75.60;14.80;96852.00;;;;5076629;28;20223;-87
2022/04/27 06:59:41;;;;;;;5.00;4.63;;;14.00;75.30;14.90;96859.00;;;;5076729;28;20243;-89
2022/04/27 07:02:12;;;;;;;5.23;4.83;;;14.10;75.10;15.10;96858.00;;;;5078220;28;20214;-87
2022/04/27 07:04:40;;;;;;;6.00;5.50;;;14.30;74.90;15.20;96858.00;;;;5077828;28;20226;-88
2022/04/27 07:07:08;;;;;;;5.23;4.83;;;14.40;74.70;15.30;96858.00;;;;5076849;28;20212;-88
2022/04/27 07:09:36;;;;;;;4.93;4.53;;;14.60;74.10;15.40;96846.00;;;;5076609;28;20770;-87
2022/04/27 07:12:04;;;;;;;4.77;4.37;;;14.60;74.10;15.50;96861.00;;;;5095285;28;20199;-87
2022/04/27 07:14:33;;;;;;;5.37;4.97;;;14.80;73.80;15.70;96864.00;;;;5095383;28;20203;-87
2022/04/27 07:17:00;;;;;;;5.57;5.07;;;14.90;73.50;15.90;96871.00;;;;5099270;28;20195;-88
2022/04/27 07:19:28;;;;;;;5.57;5.07;;;15.00;73.20;16.00;96863.00;;;;5099332;28;20227;-87
2022/04/27 07:21:55;;;;;;;5.73;5.23;;;15.20;73.10;16.10;96872.00;;;;5099654;28;20210;-88
2022/04/27 07:24:22;;;;;;;5.37;4.97;;;15.30;72.40;16.20;96874.00;;;;5100001;28;20668;-88
2022/04/27 07:26:49;;;;;;;5.90;5.40;;;15.40;72.20;16.20;96884.00;;;;5099464;28;20281;-87
2022/04/27 07:29:16;;;;;;;5.83;5.30;;;15.40;72.20;16.30;96874.00;;;;5099296;28;20306;-88
2022/04/27 07:31:45;;;;;;;5.80;5.33;;;15.60;72.10;16.30;96881.00;;;;5080032;28;20680;-88
2022/04/27 07:34:13;;;;;;;6.03;5.57;;;15.60;71.60;16.40;96878.00;;;;5099094;28;20634;-89
2022/04/27 07:36:40;;;;;;;5.50;5.00;;;15.70;71.40;16.50;96873.00;;;;5099109;28;20293;-88
2022/04/27 07:39:07;;;;;;;5.80;5.40;;;15.70;71.30;16.60;96876.00;;;;5099870;28;20206;-88
2022/04/27 07:41:34;;;;;;;5.87;5.47;;;15.80;71.30;16.70;96882.00;;;;5100515;28;20585;-87
2022/04/27 07:44:01;;;;;;;6.37;5.77;;;15.90;70.60;16.80;96889.00;;;;5098558;28;20274;-88
2022/04/27 07:46:29;;;;;;;6.20;5.70;;;16.00;70.60;16.90;96890.00;;;;5097611;28;20237;-88
2022/04/27 07:48:57;;;;;;;5.80;5.30;;;16.10;70.10;17.00;96897.00;;;;5098258;28;20657;-88
2022/04/27 07:51:24;;;;;;;5.70;5.20;;;16.20;69.80;17.10;96892.00;;;;5099079;28;20226;-87
2022/04/27 07:53:51;;;;;;;5.03;4.63;;;16.20;69.40;17.10;96899.00;;;;5096270;28;20576;-87
2022/04/27 07:56:18;;;;;;;5.40;5.00;;;16.30;69.30;17.20;96903.00;;;;5098692;28;20191;-88
2022/04/27 07:58:45;;;;;;;4.90;4.50;;;16.40;68.70;17.20;96904.00;;;;5099884;28;20206;-87
2022/04/27 08:01:12;;;;;;;5.40;5.00;;;16.40;68.80;17.30;96917.00;;;;5097095;28;20249;-88
2022/04/27 08:03:40;;;;;;;5.10;4.70;;;16.50;69.10;17.40;96912.00;;;;5094987;28;20278;-87
2022/04/27 08:06:08;;;;;;;5.20;4.80;;;16.60;70.00;17.50;96914.00;;;;5096171;28;20211;-87
2022/04/27 08:08:37;;;;;;;5.47;5.07;;;16.70;69.30;17.60;96916.00;;;;5095112;28;20616;-88
2022/04/27 08:11:04;;;;;;;5.00;4.60;;;16.80;69.10;17.70;96923.00;;;;5095027;28;20710;-87
2022/04/27 08:13:32;;;;;;;5.60;5.10;;;16.80;68.50;17.80;96924.00;;;;5095957;28;20195;-87
2022/04/27 08:15:59;;;;;;;4.77;4.47;;;16.90;68.90;17.90;96926.00;;;;5097502;28;20200;-88
2022/04/27 08:18:26;;;;;;;5.10;4.73;;;17.00;68.40;18.00;96940.00;;;;5096444;28;20288;-87
2022/04/27 08:23:40;;;;;;;5.50;5.10;;;17.10;67.70;18.00;96934.00;;;;5078086;28;20456;-88
2022/04/27 08:26:10;;;;;;;5.60;5.17;;;17.20;66.60;17.90;96934.00;;;;5077520;28;20204;-89
2022/04/27 08:28:38;;;;;;;6.00;5.40;;;17.30;66.30;17.80;96933.00;;;;5077367;28;20211;-89
2022/04/27 08:31:08;;;;;;;6.17;5.67;;;17.10;65.50;17.70;96926.00;;;;5078609;28;20224;-89
2022/04/27 08:33:36;;;;;;;6.53;5.93;;;17.10;65.80;17.60;96928.00;;;;5085117;28;20640;-87
2022/04/27 08:36:04;;;;;;;5.77;5.27;;;17.10;66.30;17.70;96933.00;;;;5097711;28;20581;-87
2022/04/27 08:38:34;;;;;;;6.63;6.03;;;17.10;66.30;17.70;96939.00;;;;5078050;28;20224;-88
2022/04/27 08:41:02;;;;;;;6.77;6.17;;;17.00;65.90;17.70;96937.00;;;;5076831;28;20685;-87
2022/04/27 08:43:29;;;;;;;7.07;6.37;;;17.00;65.20;17.60;96941.00;;;;5077236;28;20204;-88
2022/04/27 08:46:01;;;;;;;7.10;6.40;;;17.00;65.20;17.60;96944.00;;;;5085338;28;20195;-87
2022/04/27 08:48:29;;;;;;;6.53;5.93;;;17.00;65.20;17.70;96945.00;;;;5097047;28;20203;-87
2022/04/27 08:50:56;;;;;;;6.97;6.27;;;17.00;65.40;17.70;96957.00;;;;5098047;28;20223;-87
2022/04/27 08:53:25;;;;;;;7.93;7.13;;;17.00;65.70;17.70;96953.00;;;;5098178;28;20684;-87
2022/04/27 08:55:53;;;;;;;7.47;6.23;;;17.00;65.90;17.70;96959.00;;;;5099134;28;20278;-87
2022/04/27 08:58:22;;;;;;;7.30;6.30;;;17.00;65.60;17.70;96972.00;;;;5097666;28;20203;-87
2022/04/27 09:00:49;;;;;;;5.93;5.43;;;17.00;65.80;17.80;96961.00;;;;5097817;28;20296;-87
2022/04/27 09:03:36;;;;;;;7.23;5.83;;;17.00;65.70;17.80;96976.00;;;;5097684;28;20199;-87
2022/04/27 09:06:07;;;;;;;7.47;6.77;;;17.10;64.60;17.70;96972.00;;;;5098192;28;20664;-87
2022/04/27 09:08:43;;;;;;;7.53;6.70;;;17.10;65.30;17.70;96976.00;;;;5091902;28;20224;-88
2022/04/27 09:11:20;;;;;;;7.47;6.60;;;17.10;64.70;17.60;96972.00;;;;5078281;28;20842;-88
2022/04/27 09:13:51;;;;;;;7.87;7.07;;;17.00;65.20;17.60;96977.00;;;;5077869;28;20269;-89
2022/04/27 09:16:21;;;;;;;6.77;6.17;;;17.00;65.70;17.50;96981.00;;;;5078216;28;20378;-88
2022/04/27 09:22:02;;;;;;;6.73;6.03;;;16.90;65.20;17.50;96998.00;;;;5098187;28;20285;-89
2022/04/27 09:24:46;;;;;;;7.90;6.90;;;16.90;65.00;17.50;96990.00;;;;5097588;28;20640;-86
2022/04/27 09:27:18;;;;;;;7.23;6.53;;;16.80;64.60;17.30;96993.00;;;;5083267;28;20222;-88
2022/04/27 09:29:58;;;;;;;7.20;6.50;;;16.80;64.90;17.30;96999.00;;;;5095291;28;20230;-88
2022/04/27 09:32:25;;;;;;;8.87;6.93;;;16.70;64.70;17.20;96991.00;;;;5098665;28;20270;-88
2022/04/27 09:34:53;;;;;;;7.70;6.80;;;16.60;65.50;17.20;97000.00;;;;5097534;28;20272;-87
2022/04/27 09:37:24;;;;;;;7.43;6.37;;;16.60;65.50;17.20;96992.00;;;;5098417;28;20264;-87
2022/04/27 09:40:03;;;;;;;6.53;5.83;;;16.60;65.80;17.20;97002.00;;;;5098463;28;20618;-88
2022/04/27 09:42:31;;;;;;;6.67;6.07;;;16.60;65.60;17.20;97000.00;;;;5098834;28;20217;-88
2022/04/27 09:45:16;;;;;;;7.20;6.50;;;16.60;66.10;17.10;97002.00;;;;5091811;28;20572;-87
2022/04/27 09:47:48;;;;;;;6.83;6.10;;;16.50;65.10;17.10;96999.00;;;;5097438;28;20195;-88
2022/04/27 09:50:15;;;;;;;6.80;6.17;;;16.50;65.40;17.10;97006.00;;;;5097865;28;20684;-87
2022/04/27 09:52:44;;;;;;;6.87;6.27;;;16.50;65.90;17.10;97003.00;;;;5098338;28;20206;-88
2022/04/27 09:55:11;;;;;;;6.80;6.10;;;16.50;65.90;17.10;97006.00;;;;5097938;28;20645;-87
2022/04/27 09:57:42;;;;;;;6.57;5.87;;;16.50;65.60;17.10;97003.00;;;;5098733;28;20203;-87
2022/04/27 10:00:12;;;;;;;7.40;6.40;;;16.50;66.00;17.10;96992.00;;;;5094826;28;20371;-87
2022/04/27 10:02:44;;;;;;;7.43;6.40;;;16.50;65.90;17.10;97005.00;;;;5080503;28;20206;-87
2022/04/27 10:05:11;;;;;;;6.07;5.47;;;16.50;65.70;17.10;97002.00;;;;5077919;28;20200;-87
2022/04/27 10:07:39;;;;;;;6.47;5.87;;;16.50;65.30;17.00;97011.00;;;;5078102;28;20200;-87
2022/04/27 10:10:08;;;;;;;6.03;5.43;;;16.50;65.30;17.00;97010.00;;;;5090342;28;20223;-87
2022/04/27 10:12:40;;;;;;;6.33;4.73;;;16.50;65.50;17.00;97014.00;;;;5099439;28;20203;-87
2022/04/27 10:15:10;;;;;;;4.87;4.37;;;16.50;65.70;17.00;97013.00;;;;5097595;28;20278;-88
2022/04/27 10:17:39;;;;;;;4.90;4.50;;;16.50;65.50;17.00;97011.00;;;;5098341;28;20306;-88
2022/04/27 10:20:29;;;;;;;5.63;5.13;;;16.40;65.60;17.00;97009.00;;;;5097946;28;20685;-88
2022/04/27 10:23:19;;;;;;;4.73;4.37;;;16.50;64.60;17.10;97010.00;;;;5098358;28;20602;-89
2022/04/27 10:26:17;;;;;;;4.80;4.40;;;16.50;65.00;17.30;97012.00;;;;5098352;28;20196;-87
2022/04/27 10:28:49;;;;;;;4.53;4.23;;;16.50;65.20;17.50;97023.00;;;;5090469;28;20733;-88
2022/04/27 10:32:05;;;;;;;3.97;3.67;;;16.60;66.10;17.60;97023.00;;;;5086352;28;20243;-87
2022/04/27 10:34:33;;;;;;;3.47;3.17;;;16.80;65.70;17.80;97018.00;;;;5077853;28;20208;-87
2022/04/27 10:37:03;;;;;;;3.87;3.57;;;16.90;65.80;18.00;97025.00;;;;5087885;28;20218;-87
2022/04/27 10:39:32;;;;;;;3.17;2.97;;;17.00;66.20;18.10;97021.00;;;;5082837;28;20220;-87
2022/04/27 10:42:32;;;;;;;3.37;3.10;;;17.10;65.00;18.20;97027.00;;;;5076371;28;20235;-87
2022/04/27 10:45:10;;;;;;;3.70;3.40;;;17.30;64.30;18.30;97023.00;;;;5074724;28;20246;-88
2022/04/27 10:47:48;;;;;;;3.60;3.40;;;17.40;63.30;18.40;97027.00;;;;5076533;28;20249;-87
2022/04/27 10:50:26;;;;;;;3.83;3.57;;;17.50;63.10;18.50;97021.00;;;;5078090;28;20210;-88
2022/04/27 10:52:56;;;;;;;3.87;3.57;;;17.60;63.30;18.60;97025.00;;;;5095003;28;20199;-87
2022/04/27 10:55:53;;;;;;;3.50;3.30;;;17.60;63.50;18.60;97023.00;;;;5095583;28;20196;-89
2022/04/27 10:58:42;;;;;;;3.03;2.73;;;17.70;62.60;18.80;97022.00;;;;5095062;28;20539;-87
2022/04/27 11:01:32;;;;;;;3.27;3.07;;;17.80;62.10;18.80;97027.00;;;;5074343;28;20287;-87
2022/04/27 11:04:11;;;;;;;3.33;3.03;;;17.90;62.70;18.90;97024.00;;;;5075586;28;20251;-87
2022/04/27 11:07:34;;;;;;;3.77;3.47;;;18.00;62.90;18.90;97027.00;;;;5075027;28;20196;-88
2022/04/27 11:10:21;;;;;;;4.00;3.70;;;18.10;61.60;18.90;97037.00;;;;5075317;28;20227;-88
2022/04/27 11:12:51;;;;;;;3.97;3.77;;;18.10;61.20;18.90;97037.00;;;;5093605;28;20549;-87
2022/04/27 11:15:26;;;;;;;4.73;4.43;;;18.10;62.60;18.90;97029.00;;;;5093881;28;20255;-86
2022/04/27 11:18:00;;;;;;;4.50;4.20;;;18.20;61.70;18.90;97035.00;;;;5094667;28;20219;-86
2022/04/27 11:20:33;;;;;;;4.03;3.73;;;18.20;61.80;19.00;97032.00;;;;5095335;28;20249;-88
2022/04/27 11:23:07;;;;;;;4.27;3.97;;;18.20;61.60;19.20;97034.00;;;;5096202;28;20202;-89
2022/04/27 11:25:37;;;;;;;3.83;3.53;;;18.30;61.80;19.40;97032.00;;;;5094806;28;20218;-88
2022/04/27 11:28:06;;;;;;;3.10;2.90;;;18.30;61.90;19.50;97035.00;;;;5086118;28;20290;-89